createdAt,value
2022-11-04T00:01:18.520Z,12.93
2022-11-04T00:03:46.016Z,14.70
2022-11-04T00:06:13.502Z,15.43
2022-11-04T00:08:42.293Z,11.47
2022-11-04T00:11:28.397Z,15.60
2022-11-04T00:13:56.055Z,15.47
2022-11-04T00:16:41.031Z,14.03
2022-11-04T00:19:08.473Z,12.47
2022-11-04T00:21:53.713Z,11.10
2022-11-04T00:24:45.132Z,15.17
2022-11-04T00:27:30.724Z,15.47
2022-11-04T00:29:58.231Z,14.10
2022-11-04T00:32:43.027Z,12.37
2022-11-04T00:35:11.184Z,14.77
2022-11-04T00:37:38.836Z,13.00
2022-11-04T00:40:08.480Z,14.80
2022-11-04T00:42:35.948Z,14.77
2022-11-04T00:45:03.637Z,13.03
2022-11-04T00:47:31.109Z,15.10
2022-11-04T00:49:58.532Z,16.33
2022-11-04T00:52:25.989Z,12.17
2022-11-04T00:54:53.606Z,13.47
2022-11-04T00:57:22.432Z,15.63
2022-11-04T00:59:50.267Z,17.30
2022-11-04T01:02:17.761Z,17.93
2022-11-04T01:04:45.430Z,17.73
2022-11-04T01:07:12.862Z,17.77
2022-11-04T01:09:40.357Z,14.83
2022-11-04T01:12:07.831Z,14.43
2022-11-04T01:14:36.896Z,15.57
2022-11-04T01:17:04.571Z,14.30
2022-11-04T01:19:32.034Z,13.87
2022-11-04T01:21:59.481Z,15.47
2022-11-04T01:24:27.091Z,16.97
2022-11-04T01:26:54.743Z,18.80
2022-11-04T01:29:22.328Z,17.20
2022-11-04T01:31:51.354Z,16.27
2022-11-04T01:34:18.789Z,17.30
2022-11-04T01:36:46.227Z,17.40
2022-11-04T01:39:13.797Z,19.10
2022-11-04T01:41:41.311Z,18.30
2022-11-04T01:44:24.007Z,15.50
2022-11-04T01:46:53.768Z,15.77
2022-11-04T01:49:26.032Z,18.77
2022-11-04T01:51:55.678Z,19.27
2022-11-04T01:54:23.496Z,17.17
2022-11-04T01:56:50.988Z,18.20
2022-11-04T01:59:22.090Z,18.37
2022-11-04T02:01:49.658Z,20.07
2022-11-04T02:04:28.127Z,16.60
2022-11-04T02:06:57.371Z,20.73
2022-11-04T02:09:25.721Z,19.70
2022-11-04T02:12:10.763Z,20.07
2022-11-04T02:14:38.264Z,16.93
2022-11-04T02:17:11.837Z,19.43
2022-11-04T02:19:54.892Z,22.40
2022-11-04T02:22:37.033Z,21.67
2022-11-04T02:25:17.852Z,20.53
2022-11-04T02:27:51.508Z,18.00
2022-11-04T02:30:20.849Z,18.10
2022-11-04T02:32:56.244Z,19.93
2022-11-04T02:35:26.379Z,17.67
2022-11-04T02:37:57.058Z,16.60
2022-11-04T02:40:34.828Z,17.77
2022-11-04T02:43:04.440Z,22.83
2022-11-04T02:45:36.773Z,19.50
2022-11-04T02:48:06.426Z,19.97
2022-11-04T02:50:35.017Z,16.63
2022-11-04T02:53:04.636Z,19.63
2022-11-04T02:55:35.140Z,17.40
2022-11-04T02:58:03.963Z,18.73
2022-11-04T03:00:32.399Z,17.17
2022-11-04T03:03:03.761Z,19.77
2022-11-04T03:05:33.140Z,21.27
2022-11-04T03:08:03.191Z,22.77
2022-11-04T03:10:34.646Z,22.10
2022-11-04T03:13:03.903Z,23.27
2022-11-04T03:15:33.588Z,25.37
2022-11-04T03:18:05.363Z,26.23
2022-11-04T03:20:33.281Z,24.63
2022-11-04T03:23:00.871Z,27.07
2022-11-04T03:25:29.638Z,24.33
2022-11-04T03:28:02.630Z,28.60
2022-11-04T03:30:33.159Z,32.17
2022-11-04T03:33:04.979Z,29.97
2022-11-04T03:35:34.032Z,24.60
2022-11-04T03:38:01.525Z,27.23
2022-11-04T03:40:29.136Z,25.97
2022-11-04T03:42:58.527Z,29.80
2022-11-04T03:45:26.207Z,29.50
2022-11-04T03:47:53.670Z,34.70
2022-11-04T03:50:24.329Z,72.83
2022-11-04T03:52:53.398Z,65.13
2022-11-04T03:55:21.613Z,55.07
2022-11-04T03:57:52.446Z,115.87
2022-11-04T04:00:20.994Z,66.03
2022-11-04T04:03:00.947Z,69.87
2022-11-04T04:05:30.130Z,64.87
2022-11-04T04:08:02.152Z,36.53
2022-11-04T04:10:40.875Z,30.83
2022-11-04T04:13:17.586Z,30.20
2022-11-04T04:15:46.925Z,25.60
2022-11-04T04:18:15.847Z,28.73
2022-11-04T04:20:47.072Z,23.03
2022-11-04T04:23:35.042Z,24.83
2022-11-04T04:26:24.135Z,24.17
2022-11-04T04:28:52.986Z,25.57
2022-11-04T04:31:35.541Z,27.10
2022-11-04T04:34:03.044Z,25.57
2022-11-04T04:36:31.735Z,27.23
2022-11-04T04:39:21.721Z,24.93
2022-11-04T04:42:07.145Z,27.33
2022-11-04T04:44:52.644Z,27.80
2022-11-04T04:47:23.117Z,31.97
2022-11-04T04:49:50.865Z,31.13
2022-11-04T04:52:18.372Z,28.73
2022-11-04T04:54:47.154Z,28.93
2022-11-04T04:57:14.794Z,27.07
2022-11-04T04:59:42.284Z,29.37
2022-11-04T05:02:09.858Z,28.47
2022-11-04T05:04:37.413Z,25.97
2022-11-04T05:07:06.795Z,28.33
2022-11-04T05:09:34.360Z,28.57
2022-11-04T05:12:03.140Z,29.23
2022-11-04T05:14:30.708Z,29.13
2022-11-04T05:16:58.968Z,30.33
2022-11-04T05:19:26.469Z,30.30
2022-11-04T05:21:53.981Z,31.10
2022-11-04T05:24:21.425Z,35.33
2022-11-04T05:26:49.170Z,32.37
2022-11-04T05:29:17.937Z,31.20
2022-11-04T05:31:45.434Z,30.83
2022-11-04T05:34:13.224Z,28.73
2022-11-04T05:36:40.745Z,31.43
2022-11-04T05:39:08.196Z,30.70
2022-11-04T05:41:35.675Z,25.57
2022-11-04T05:44:04.235Z,30.07
2022-11-04T05:46:33.060Z,25.43
2022-11-04T05:49:00.499Z,27.00
2022-11-04T05:51:29.152Z,25.47
2022-11-04T05:53:56.594Z,23.60
2022-11-04T05:56:24.042Z,20.60
2022-11-04T05:58:51.883Z,23.10
2022-11-04T06:01:30.169Z,18.00
2022-11-04T06:03:59.820Z,20.03
2022-11-04T06:06:28.380Z,18.20
2022-11-04T06:08:56.119Z,19.50
2022-11-04T06:11:23.886Z,19.23
2022-11-04T06:13:51.723Z,18.63
2022-11-04T06:16:19.435Z,20.47
2022-11-04T06:18:46.879Z,18.90
2022-11-04T06:21:25.122Z,13.40
2022-11-04T06:23:53.422Z,15.33
2022-11-04T06:26:26.792Z,16.03
2022-11-04T06:28:55.645Z,15.37
2022-11-04T06:31:23.262Z,13.73
2022-11-04T06:33:50.729Z,14.10
2022-11-04T06:36:18.508Z,13.27
2022-11-04T06:38:47.293Z,12.47
2022-11-04T06:41:15.607Z,14.37
2022-11-04T06:43:43.147Z,11.87
2022-11-04T06:46:25.013Z,12.87
2022-11-04T06:48:52.509Z,15.23
2022-11-04T06:51:20.034Z,13.93
2022-11-04T06:53:48.815Z,12.30
2022-11-04T06:56:16.292Z,13.97
2022-11-04T06:58:43.774Z,12.30
2022-11-04T07:01:15.887Z,11.40
2022-11-04T07:03:49.635Z,10.37
2022-11-04T07:06:17.059Z,10.83
2022-11-04T07:08:44.507Z,8.73
2022-11-04T07:11:13.331Z,10.97
2022-11-04T07:13:41.591Z,8.37
2022-11-04T07:16:09.544Z,8.53
2022-11-04T07:18:37.191Z,9.47
2022-11-04T07:21:09.754Z,10.30
2022-11-04T07:23:37.877Z,9.23
2022-11-04T07:26:06.536Z,10.30
2022-11-04T07:28:35.549Z,8.73
2022-11-04T07:31:03.887Z,8.97
2022-11-04T07:33:32.701Z,8.37
2022-11-04T07:36:00.271Z,10.87
2022-11-04T07:38:27.694Z,8.57
2022-11-04T07:40:55.428Z,10.63
2022-11-04T07:43:22.984Z,8.57
2022-11-04T07:46:00.868Z,7.80
2022-11-04T07:48:28.299Z,8.73
2022-11-04T07:50:56.479Z,9.33
2022-11-04T07:53:23.912Z,7.53
2022-11-04T07:55:51.372Z,10.20
2022-11-04T07:58:19.120Z,10.00
2022-11-04T08:00:46.631Z,9.50
2022-11-04T08:03:15.484Z,8.03
2022-11-04T08:05:42.974Z,7.03
2022-11-04T08:08:10.451Z,7.33
2022-11-04T08:10:38.049Z,6.90
2022-11-04T08:13:05.730Z,8.93
2022-11-04T08:15:33.346Z,7.20
2022-11-04T08:18:00.788Z,7.40
2022-11-04T08:20:29.590Z,5.73
2022-11-04T08:22:57.056Z,5.93
2022-11-04T08:25:24.504Z,7.67
2022-11-04T08:27:55.581Z,6.23
2022-11-04T08:30:27.174Z,9.73
2022-11-04T08:32:54.596Z,6.67
2022-11-04T08:35:22.195Z,6.73
2022-11-04T08:37:50.947Z,7.30
2022-11-04T08:40:18.384Z,5.73
2022-11-04T08:42:45.873Z,6.17
2022-11-04T08:45:13.312Z,5.97
2022-11-04T08:47:40.772Z,6.00
2022-11-04T08:50:08.609Z,8.37
2022-11-04T08:52:36.027Z,6.07
2022-11-04T08:55:05.071Z,6.17
2022-11-04T08:57:32.542Z,9.37
2022-11-04T09:00:00.573Z,8.00
2022-11-04T09:02:28.112Z,7.13
2022-11-04T09:04:55.568Z,6.83
2022-11-04T09:07:23.024Z,7.10
2022-11-04T09:09:50.464Z,6.57
2022-11-04T09:12:19.241Z,6.57
2022-11-04T09:14:46.903Z,6.97
2022-11-04T09:17:14.353Z,5.77
2022-11-04T09:19:41.793Z,7.20
2022-11-04T09:22:09.363Z,7.67
2022-11-04T09:24:36.812Z,7.43
2022-11-04T09:27:05.640Z,6.50
2022-11-04T09:29:36.306Z,8.60
2022-11-04T09:32:03.972Z,8.23
2022-11-04T09:34:31.415Z,6.13
2022-11-04T09:36:58.876Z,7.43
2022-11-04T09:39:27.054Z,7.40
2022-11-04T09:41:59.920Z,9.47
2022-11-04T09:44:28.318Z,7.63
2022-11-04T09:46:59.418Z,9.67
2022-11-04T09:49:28.227Z,7.07
2022-11-04T09:51:57.260Z,9.53
2022-11-04T09:54:25.510Z,5.03
2022-11-04T09:56:55.220Z,8.73
2022-11-04T09:59:26.125Z,9.00
2022-11-04T10:02:09.348Z,7.07
2022-11-04T10:04:46.244Z,9.40
2022-11-04T10:07:21.299Z,5.90
2022-11-04T10:09:54.440Z,6.87
2022-11-04T10:12:26.872Z,4.97
2022-11-04T10:15:05.592Z,6.33
2022-11-04T10:17:41.239Z,5.63
2022-11-04T10:20:20.574Z,5.30
2022-11-04T10:22:56.017Z,4.20
2022-11-04T10:25:24.473Z,4.63
2022-11-04T10:27:52.456Z,6.87
2022-11-04T10:30:21.129Z,5.93
2022-11-04T10:32:55.263Z,7.17
2022-11-04T10:35:28.351Z,5.13
2022-11-04T10:37:56.536Z,5.30
2022-11-04T10:40:25.885Z,5.47
2022-11-04T10:42:53.788Z,5.70
2022-11-04T10:45:21.797Z,5.00
2022-11-04T10:47:53.032Z,6.57
2022-11-04T10:50:29.452Z,5.87
2022-11-04T10:53:12.530Z,6.23
2022-11-04T10:55:43.588Z,5.07
2022-11-04T10:58:17.043Z,5.37
2022-11-04T11:00:44.614Z,7.07
2022-11-04T11:03:30.080Z,5.07
2022-11-04T11:06:22.087Z,5.60
2022-11-04T11:08:49.772Z,5.27
2022-11-04T11:11:17.855Z,4.57
2022-11-04T11:13:46.306Z,4.13
2022-11-04T11:16:18.245Z,5.77
2022-11-04T11:18:45.836Z,7.37
2022-11-04T11:21:15.925Z,3.60
2022-11-04T11:23:47.299Z,4.20
2022-11-04T11:26:16.236Z,5.77
2022-11-04T11:28:50.445Z,3.97
2022-11-04T11:31:24.479Z,4.23
2022-11-04T11:33:53.190Z,5.00
2022-11-04T11:36:23.078Z,3.93
2022-11-04T11:39:01.124Z,4.50
2022-11-04T11:41:32.364Z,4.97
2022-11-04T11:44:01.719Z,3.37
2022-11-04T11:46:30.000Z,5.80
2022-11-04T11:49:01.081Z,4.37
2022-11-04T11:51:32.272Z,5.67
2022-11-04T11:54:23.654Z,4.20
2022-11-04T11:57:12.711Z,3.20
2022-11-04T12:02:44.014Z,6.50
2022-11-04T12:10:59.522Z,3.70
2022-11-04T12:13:28.711Z,4.17
2022-11-04T12:16:07.015Z,4.63
2022-11-04T12:18:52.679Z,3.27
2022-11-04T12:21:31.435Z,4.80
2022-11-04T12:24:01.184Z,4.50
2022-11-04T12:26:35.703Z,4.40
2022-11-04T12:29:08.939Z,2.87
2022-11-04T12:31:41.664Z,3.53
2022-11-04T12:34:12.383Z,4.67
2022-11-04T12:36:57.687Z,2.60
2022-11-04T12:39:29.329Z,3.20
2022-11-04T12:42:20.541Z,3.07
2022-11-04T12:44:54.261Z,4.70
2022-11-04T12:47:29.679Z,3.17
2022-11-04T12:50:18.285Z,2.67
2022-11-04T12:52:51.985Z,4.10
2022-11-04T12:55:25.016Z,4.53
2022-11-04T12:57:57.875Z,3.40
2022-11-04T13:00:28.083Z,2.70
2022-11-04T13:02:58.508Z,4.10
2022-11-04T13:05:29.881Z,4.63
2022-11-04T13:07:58.647Z,4.00
2022-11-04T13:10:28.248Z,5.43
2022-11-04T13:12:57.996Z,3.67
2022-11-04T13:15:26.628Z,4.00
2022-11-04T13:17:58.929Z,4.37
2022-11-04T13:20:28.557Z,3.63
2022-11-04T13:23:03.144Z,4.00
2022-11-04T13:25:34.787Z,4.93
2022-11-04T13:28:04.086Z,3.90
2022-11-04T13:30:35.040Z,4.43
2022-11-04T13:33:08.919Z,4.10
2022-11-04T13:35:40.888Z,4.03
2022-11-04T13:38:12.667Z,5.53
2022-11-04T13:40:43.624Z,3.13
2022-11-04T13:43:39.922Z,4.57
2022-11-04T13:46:18.656Z,3.73
2022-11-04T13:48:53.731Z,3.07
2022-11-04T13:51:21.309Z,4.13
2022-11-04T13:53:50.283Z,4.23
2022-11-04T13:56:34.244Z,4.63
2022-11-04T13:59:06.408Z,4.73
2022-11-04T14:01:34.970Z,6.20
2022-11-04T14:04:03.880Z,7.50
2022-11-04T14:06:49.819Z,5.30
2022-11-04T14:09:36.605Z,3.47
2022-11-04T14:12:26.644Z,4.33
2022-11-04T14:15:03.901Z,4.67
2022-11-04T14:17:50.290Z,3.73
2022-11-04T14:20:24.124Z,3.10
2022-11-04T14:22:54.397Z,3.63
2022-11-04T14:25:27.481Z,4.20
2022-11-04T14:27:55.818Z,3.23
2022-11-04T14:30:44.298Z,3.03
2022-11-04T14:33:33.701Z,3.60
2022-11-04T14:36:20.004Z,3.77
2022-11-04T14:38:53.593Z,4.97
2022-11-04T14:41:23.483Z,2.73
2022-11-04T14:43:51.202Z,3.70
2022-11-04T14:46:20.316Z,4.33
2022-11-04T14:48:52.204Z,3.13
2022-11-04T14:51:25.988Z,4.73
2022-11-04T14:53:55.105Z,4.77
2022-11-04T14:56:24.318Z,3.60
2022-11-04T14:58:58.882Z,6.30
2022-11-04T15:01:32.926Z,5.23
2022-11-04T15:04:12.535Z,4.07
2022-11-04T15:06:53.979Z,3.87
2022-11-04T15:09:24.217Z,5.50
2022-11-04T15:12:10.375Z,6.17
2022-11-04T15:14:37.959Z,6.80
2022-11-04T15:17:05.465Z,4.40
2022-11-04T15:19:35.564Z,6.90
2022-11-04T15:22:04.087Z,6.87
2022-11-04T15:24:31.985Z,6.90
2022-11-04T15:27:03.043Z,6.47
2022-11-04T15:29:30.480Z,6.57
2022-11-04T15:31:59.126Z,4.77
2022-11-04T15:34:27.763Z,3.87
2022-11-04T15:36:57.725Z,6.00
2022-11-04T15:39:26.749Z,5.80
2022-11-04T15:42:15.692Z,5.67
2022-11-04T15:44:46.648Z,5.60
2022-11-04T15:47:24.918Z,4.80
2022-11-04T15:49:54.157Z,6.37
2022-11-04T15:52:24.472Z,6.90
2022-11-04T15:54:53.166Z,5.67
2022-11-04T15:57:22.709Z,6.67
2022-11-04T15:59:51.738Z,6.80
2022-11-04T16:02:25.779Z,6.37
2022-11-04T16:05:06.776Z,6.87
2022-11-04T16:07:37.453Z,5.80
2022-11-04T16:10:23.444Z,5.30
2022-11-04T16:12:52.591Z,5.13
2022-11-04T16:15:34.245Z,4.60
2022-11-04T16:18:02.056Z,5.50
2022-11-04T16:20:30.987Z,6.57
2022-11-04T16:23:00.905Z,4.83
2022-11-04T16:25:30.776Z,7.77
2022-11-04T16:28:00.470Z,4.93
2022-11-04T16:30:28.684Z,4.70
2022-11-04T16:32:56.651Z,4.60
2022-11-04T16:35:25.067Z,4.50
2022-11-04T16:37:52.593Z,5.23
2022-11-04T16:40:22.580Z,12.03
2022-11-04T16:42:50.584Z,5.70
2022-11-04T16:45:22.789Z,7.97
2022-11-04T16:47:50.608Z,5.83
2022-11-04T16:50:18.311Z,6.37
2022-11-04T16:52:45.925Z,6.40
2022-11-04T16:55:14.054Z,7.37
2022-11-04T16:57:44.038Z,5.13
2022-11-04T17:00:18.604Z,7.47
2022-11-04T17:02:46.139Z,7.10
2022-11-04T17:05:13.589Z,5.07
2022-11-04T17:07:52.889Z,5.23
2022-11-04T17:10:23.034Z,6.23
2022-11-04T17:12:51.996Z,5.23
2022-11-04T17:15:19.805Z,6.80
2022-11-04T17:17:47.513Z,5.33
2022-11-04T17:20:17.237Z,6.90
2022-11-04T17:22:45.267Z,5.70
2022-11-04T17:25:16.059Z,6.43
2022-11-04T17:27:44.440Z,8.80
2022-11-04T17:30:15.188Z,6.47
2022-11-04T17:32:42.719Z,7.97
2022-11-04T17:35:10.716Z,5.43
2022-11-04T17:37:38.323Z,6.57
2022-11-04T17:40:06.262Z,5.67
2022-11-04T17:42:51.182Z,8.73
2022-11-04T17:45:20.033Z,7.63
2022-11-04T17:47:47.474Z,6.17
2022-11-04T17:50:14.922Z,6.53
2022-11-04T17:52:43.905Z,5.83
2022-11-04T17:55:16.784Z,5.60
2022-11-04T17:57:45.972Z,7.17
2022-11-04T18:00:14.319Z,5.67
2022-11-04T18:02:43.664Z,6.90
2022-11-04T18:05:11.252Z,7.63
2022-11-04T18:07:38.705Z,8.70
2022-11-04T18:10:06.713Z,8.27
2022-11-04T18:12:41.408Z,9.53
2022-11-04T18:15:10.585Z,7.73
2022-11-04T18:17:38.707Z,7.20
2022-11-04T18:20:13.956Z,9.10
2022-11-04T18:22:41.862Z,6.60
2022-11-04T18:25:09.819Z,7.43
2022-11-04T18:27:37.555Z,6.07
2022-11-04T18:30:05.314Z,9.50
2022-11-04T18:32:32.832Z,12.10
2022-11-04T18:35:00.320Z,8.20
2022-11-04T18:37:29.485Z,8.13
2022-11-04T18:39:57.044Z,10.80
2022-11-04T18:42:24.502Z,7.80
2022-11-04T18:44:51.983Z,7.27
2022-11-04T18:47:20.293Z,11.60
2022-11-04T18:49:48.075Z,8.67
2022-11-04T18:52:15.544Z,9.30
2022-11-04T18:54:44.714Z,8.63
2022-11-04T18:57:12.210Z,8.53
2022-11-04T18:59:39.714Z,8.87
2022-11-04T19:02:07.876Z,7.87
2022-11-04T19:04:35.528Z,7.20
2022-11-04T19:07:04.300Z,7.53
2022-11-04T19:09:46.076Z,7.93
2022-11-04T19:12:33.414Z,10.57
2022-11-04T19:15:00.871Z,10.07
2022-11-04T19:17:28.313Z,8.73
2022-11-04T19:19:55.773Z,8.37
2022-11-04T19:22:23.241Z,12.07
2022-11-04T19:24:50.667Z,9.77
2022-11-04T19:27:21.534Z,10.97
2022-11-04T19:29:49.116Z,12.00
2022-11-04T19:32:16.574Z,10.53
2022-11-04T19:34:44.558Z,8.87
2022-11-04T19:37:11.975Z,10.00
2022-11-04T19:39:39.760Z,11.37
2022-11-04T19:42:49.897Z,9.63
2022-11-04T19:45:20.583Z,12.10
2022-11-04T19:47:48.033Z,9.43
2022-11-04T19:50:15.484Z,9.43
2022-11-04T19:52:44.148Z,9.67
2022-11-04T19:55:11.616Z,8.70
2022-11-04T19:57:40.060Z,9.73
2022-11-04T20:00:08.105Z,8.43
2022-11-04T20:02:43.084Z,9.83
2022-11-04T20:05:10.596Z,9.20
2022-11-04T20:07:39.314Z,10.73
2022-11-04T20:10:07.534Z,7.43
2022-11-04T20:12:53.174Z,8.73
2022-11-04T20:15:20.747Z,12.97
2022-11-04T20:17:49.495Z,10.63
2022-11-04T20:20:16.978Z,10.10
2022-11-04T20:22:44.419Z,12.73
2022-11-04T20:25:11.962Z,6.93
2022-11-04T20:27:39.487Z,8.50
2022-11-04T20:30:07.467Z,9.20
2022-11-04T20:32:35.032Z,8.33
2022-11-04T20:35:03.901Z,12.03
2022-11-04T20:37:31.336Z,8.77
2022-11-04T20:39:58.871Z,9.70
2022-11-04T20:42:26.333Z,10.47
2022-11-04T20:44:53.765Z,10.60
2022-11-04T20:47:21.843Z,8.77
2022-11-04T20:49:49.645Z,11.77
2022-11-04T20:52:18.904Z,9.47
2022-11-04T20:54:46.475Z,11.27
2022-11-04T20:57:14.274Z,11.40
2022-11-04T20:59:43.757Z,9.17
2022-11-04T21:02:13.437Z,10.17
2022-11-04T21:04:41.140Z,10.83
2022-11-04T21:07:08.580Z,12.93
2022-11-04T21:09:37.561Z,11.90
2022-11-04T21:12:05.295Z,11.57
2022-11-04T21:14:35.052Z,10.90
2022-11-04T21:17:02.722Z,13.50
2022-11-04T21:19:30.608Z,12.10
2022-11-04T21:21:58.388Z,11.47
2022-11-04T21:24:25.896Z,11.87
2022-11-04T21:26:55.191Z,11.50
2022-11-04T21:29:22.701Z,11.97
2022-11-04T21:31:50.159Z,11.57
2022-11-04T21:34:17.886Z,12.13
2022-11-04T21:36:45.602Z,12.53
2022-11-04T21:39:14.403Z,11.63
2022-11-04T21:41:41.928Z,9.87
2022-11-04T21:44:11.456Z,9.97
2022-11-04T21:46:39.400Z,12.17
2022-11-04T21:49:06.905Z,15.83
2022-11-04T21:51:34.733Z,10.83
2022-11-04T21:54:04.891Z,12.03
2022-11-04T21:56:33.077Z,11.03
2022-11-04T21:59:01.447Z,14.20
2022-11-04T22:01:31.148Z,12.23
2022-11-04T22:03:59.774Z,13.70
2022-11-04T22:06:33.527Z,10.90
2022-11-04T22:09:01.490Z,10.10
2022-11-04T22:11:29.893Z,14.43
2022-11-04T22:13:58.003Z,13.87
2022-11-04T22:16:26.604Z,13.87
2022-11-04T22:18:56.449Z,12.90
2022-11-04T22:21:25.119Z,11.47
2022-11-04T22:23:53.759Z,10.07
2022-11-04T22:26:24.064Z,9.47
2022-11-04T22:28:52.117Z,8.63
2022-11-04T22:31:21.089Z,12.00
2022-11-04T22:33:48.538Z,9.57
2022-11-04T22:36:17.551Z,10.03
2022-11-04T22:38:45.123Z,11.87
2022-11-04T22:41:13.954Z,8.50
2022-11-04T22:43:41.677Z,9.07
2022-11-04T22:46:10.070Z,8.17
2022-11-04T22:48:37.844Z,12.00
2022-11-04T22:51:05.573Z,12.93
2022-11-04T22:53:34.437Z,11.77
2022-11-04T22:56:02.467Z,8.83
2022-11-04T22:58:30.358Z,11.13
2022-11-04T23:00:59.327Z,9.47
2022-11-04T23:03:26.810Z,12.80
2022-11-04T23:05:54.781Z,8.53
2022-11-04T23:08:22.219Z,11.67
2022-11-04T23:11:08.743Z,11.70
2022-11-04T23:13:53.547Z,10.23
2022-11-04T23:16:40.666Z,9.60
2022-11-04T23:19:08.148Z,12.60
2022-11-04T23:21:53.213Z,13.57
2022-11-04T23:24:38.056Z,11.70
2022-11-04T23:27:07.388Z,10.67
2022-11-04T23:29:52.587Z,11.50
2022-11-04T23:32:23.228Z,12.13
2022-11-04T23:35:26.900Z,13.57
2022-11-04T23:37:57.221Z,17.40
2022-11-04T23:40:24.752Z,12.83
2022-11-04T23:42:53.516Z,13.27
2022-11-04T23:45:38.414Z,10.97
2022-11-04T23:48:23.803Z,14.17
2022-11-04T23:51:12.825Z,18.83
2022-11-04T23:54:06.108Z,12.57
2022-11-04T23:56:51.035Z,13.87
2022-11-04T23:59:37.788Z,14.23
